sensor_id;sensor_type;location;lat;lon;timestamp;temperature;humidity
49579;DHT22;35483;50.828;3.228;2023-03-14T00:01:36;11.50;99.20
49579;DHT22;35483;50.828;3.228;2023-03-14T00:04:04;11.50;99.30
49579;DHT22;35483;50.828;3.228;2023-03-14T00:06:30;11.60;99.30
49579;DHT22;35483;50.828;3.228;2023-03-14T00:08:56;11.60;99.30
49579;DHT22;35483;50.828;3.228;2023-03-14T00:11:22;11.60;99.20
49579;DHT22;35483;50.828;3.228;2023-03-14T00:13:52;11.50;99.40
49579;DHT22;35483;50.828;3.228;2023-03-14T00:16:18;11.50;99.40
49579;DHT22;35483;50.828;3.228;2023-03-14T00:18:44;11.30;99.90
49579;DHT22;35483;50.828;3.228;2023-03-14T00:21:11;11.30;99.90
49579;DHT22;35483;50.828;3.228;2023-03-14T00:23:38;11.30;99.90
49579;DHT22;35483;50.828;3.228;2023-03-14T00:26:09;11.30;99.70
49579;DHT22;35483;50.828;3.228;2023-03-14T00:28:39;11.30;99.80
49579;DHT22;35483;50.828;3.228;2023-03-14T00:31:07;11.30;99.80
49579;DHT22;35483;50.828;3.228;2023-03-14T00:33:34;11.30;99.80
49579;DHT22;35483;50.828;3.228;2023-03-14T00:36:04;11.30;99.80
49579;DHT22;35483;50.828;3.228;2023-03-14T00:38:32;11.40;99.90
49579;DHT22;35483;50.828;3.228;2023-03-14T00:40:58;11.40;99.90
49579;DHT22;35483;50.828;3.228;2023-03-14T00:43:25;11.40;99.80
49579;DHT22;35483;50.828;3.228;2023-03-14T00:45:52;11.50;99.90
49579;DHT22;35483;50.828;3.228;2023-03-14T00:48:19;11.50;99.90
49579;DHT22;35483;50.828;3.228;2023-03-14T00:50:46;11.50;99.90
49579;DHT22;35483;50.828;3.228;2023-03-14T00:53:13;11.40;99.90
49579;DHT22;35483;50.828;3.228;2023-03-14T00:55:41;11.40;99.90
49579;DHT22;35483;50.828;3.228;2023-03-14T00:58:08;11.50;99.90
49579;DHT22;35483;50.828;3.228;2023-03-14T01:00:36;11.50;99.90
49579;DHT22;35483;50.828;3.228;2023-03-14T01:03:02;11.60;99.90
49579;DHT22;35483;50.828;3.228;2023-03-14T01:05:28;11.60;99.90
49579;DHT22;35483;50.828;3.228;2023-03-14T01:07:55;11.50;99.90
49579;DHT22;35483;50.828;3.228;2023-03-14T01:10:21;11.50;99.90
49579;DHT22;35483;50.828;3.228;2023-03-14T01:12:47;11.40;99.90
49579;DHT22;35483;50.828;3.228;2023-03-14T01:15:13;11.40;99.90
49579;DHT22;35483;50.828;3.228;2023-03-14T01:17:40;11.30;99.90
49579;DHT22;35483;50.828;3.228;2023-03-14T01:20:07;11.20;99.90
49579;DHT22;35483;50.828;3.228;2023-03-14T01:22:38;11.20;99.90
49579;DHT22;35483;50.828;3.228;2023-03-14T01:25:12;11.20;99.90
49579;DHT22;35483;50.828;3.228;2023-03-14T01:27:41;11.20;99.90
49579;DHT22;35483;50.828;3.228;2023-03-14T01:30:09;11.20;99.90
49579;DHT22;35483;50.828;3.228;2023-03-14T01:32:35;11.30;99.90
49579;DHT22;35483;50.828;3.228;2023-03-14T01:35:02;11.30;99.90
49579;DHT22;35483;50.828;3.228;2023-03-14T01:37:28;11.40;99.90
49579;DHT22;35483;50.828;3.228;2023-03-14T01:39:57;11.50;99.90
49579;DHT22;35483;50.828;3.228;2023-03-14T01:42:23;11.50;99.90
49579;DHT22;35483;50.828;3.228;2023-03-14T01:44:57;11.50;99.90
49579;DHT22;35483;50.828;3.228;2023-03-14T01:47:24;11.60;99.90
49579;DHT22;35483;50.828;3.228;2023-03-14T01:49:59;11.50;99.90
49579;DHT22;35483;50.828;3.228;2023-03-14T01:52:48;11.60;99.90
49579;DHT22;35483;50.828;3.228;2023-03-14T01:55:21;11.70;99.90
49579;DHT22;35483;50.828;3.228;2023-03-14T01:57:52;11.70;99.90
49579;DHT22;35483;50.828;3.228;2023-03-14T02:00:21;11.60;99.90
49579;DHT22;35483;50.828;3.228;2023-03-14T02:02:53;11.60;99.90
49579;DHT22;35483;50.828;3.228;2023-03-14T02:05:30;11.60;99.90
49579;DHT22;35483;50.828;3.228;2023-03-14T02:08:00;11.70;99.90
49579;DHT22;35483;50.828;3.228;2023-03-14T02:10:30;11.70;99.90
49579;DHT22;35483;50.828;3.228;2023-03-14T02:13:00;11.70;99.90
49579;DHT22;35483;50.828;3.228;2023-03-14T02:15:27;11.60;99.90
49579;DHT22;35483;50.828;3.228;2023-03-14T02:17:57;11.60;99.90
49579;DHT22;35483;50.828;3.228;2023-03-14T02:23:11;11.60;99.90
49579;DHT22;35483;50.828;3.228;2023-03-14T02:28:07;11.60;99.90
49579;DHT22;35483;50.828;3.228;2023-03-14T02:30:33;11.60;99.90
49579;DHT22;35483;50.828;3.228;2023-03-14T02:33:08;11.60;99.90
49579;DHT22;35483;50.828;3.228;2023-03-14T02:35:43;11.60;99.90
49579;DHT22;35483;50.828;3.228;2023-03-14T02:40:42;11.50;99.90
49579;DHT22;35483;50.828;3.228;2023-03-14T02:43:08;11.50;99.90
49579;DHT22;35483;50.828;3.228;2023-03-14T02:45:46;11.50;99.90
49579;DHT22;35483;50.828;3.228;2023-03-14T02:48:22;11.50;99.90
49579;DHT22;35483;50.828;3.228;2023-03-14T02:50:53;11.50;99.90
49579;DHT22;35483;50.828;3.228;2023-03-14T02:53:24;11.40;99.90
49579;DHT22;35483;50.828;3.228;2023-03-14T02:55:50;11.30;99.90
49579;DHT22;35483;50.828;3.228;2023-03-14T02:58:18;11.30;99.90
49579;DHT22;35483;50.828;3.228;2023-03-14T03:00:44;11.20;99.90
49579;DHT22;35483;50.828;3.228;2023-03-14T03:03:10;11.20;99.90
49579;DHT22;35483;50.828;3.228;2023-03-14T03:05:36;11.20;99.90
49579;DHT22;35483;50.828;3.228;2023-03-14T03:08:02;11.20;99.90
49579;DHT22;35483;50.828;3.228;2023-03-14T03:10:30;11.30;99.90
49579;DHT22;35483;50.828;3.228;2023-03-14T03:12:56;11.30;99.90
49579;DHT22;35483;50.828;3.228;2023-03-14T03:15:22;11.30;99.90
49579;DHT22;35483;50.828;3.228;2023-03-14T03:17:48;11.40;99.90
49579;DHT22;35483;50.828;3.228;2023-03-14T03:20:14;11.40;99.90
49579;DHT22;35483;50.828;3.228;2023-03-14T03:22:39;11.40;99.90
49579;DHT22;35483;50.828;3.228;2023-03-14T03:25:07;11.50;99.90
49579;DHT22;35483;50.828;3.228;2023-03-14T03:27:34;11.50;99.90
49579;DHT22;35483;50.828;3.228;2023-03-14T03:30:04;11.60;99.90
49579;DHT22;35483;50.828;3.228;2023-03-14T03:32:33;11.60;99.90
49579;DHT22;35483;50.828;3.228;2023-03-14T03:35:04;11.60;99.90
49579;DHT22;35483;50.828;3.228;2023-03-14T03:37:33;11.60;99.90
49579;DHT22;35483;50.828;3.228;2023-03-14T03:39:59;11.60;99.90
49579;DHT22;35483;50.828;3.228;2023-03-14T03:42:27;11.60;99.90
49579;DHT22;35483;50.828;3.228;2023-03-14T03:44:53;11.60;99.90
49579;DHT22;35483;50.828;3.228;2023-03-14T03:47:20;11.60;99.90
49579;DHT22;35483;50.828;3.228;2023-03-14T03:49:46;11.50;99.90
49579;DHT22;35483;50.828;3.228;2023-03-14T03:52:14;11.50;99.90
49579;DHT22;35483;50.828;3.228;2023-03-14T03:54:39;11.50;99.90
49579;DHT22;35483;50.828;3.228;2023-03-14T03:57:06;11.60;99.90
49579;DHT22;35483;50.828;3.228;2023-03-14T03:59:33;11.60;99.90
49579;DHT22;35483;50.828;3.228;2023-03-14T04:02:02;11.70;99.90
49579;DHT22;35483;50.828;3.228;2023-03-14T04:04:28;11.70;99.90
49579;DHT22;35483;50.828;3.228;2023-03-14T04:06:53;11.70;99.90
49579;DHT22;35483;50.828;3.228;2023-03-14T04:09:19;11.80;99.90
49579;DHT22;35483;50.828;3.228;2023-03-14T04:11:45;11.80;99.90
49579;DHT22;35483;50.828;3.228;2023-03-14T04:14:10;11.80;99.90
49579;DHT22;35483;50.828;3.228;2023-03-14T04:16:36;11.70;99.90
49579;DHT22;35483;50.828;3.228;2023-03-14T04:19:02;11.70;99.90
49579;DHT22;35483;50.828;3.228;2023-03-14T04:21:29;11.70;99.90
49579;DHT22;35483;50.828;3.228;2023-03-14T04:23:54;11.80;99.90
49579;DHT22;35483;50.828;3.228;2023-03-14T04:26:20;11.80;99.90
49579;DHT22;35483;50.828;3.228;2023-03-14T04:28:46;11.80;99.90
49579;DHT22;35483;50.828;3.228;2023-03-14T04:31:15;11.80;99.90
49579;DHT22;35483;50.828;3.228;2023-03-14T04:33:41;11.80;99.90
49579;DHT22;35483;50.828;3.228;2023-03-14T04:36:08;11.80;99.90
49579;DHT22;35483;50.828;3.228;2023-03-14T04:38:34;11.80;99.90
49579;DHT22;35483;50.828;3.228;2023-03-14T04:41:03;11.80;99.90
49579;DHT22;35483;50.828;3.228;2023-03-14T04:43:30;11.80;99.90
49579;DHT22;35483;50.828;3.228;2023-03-14T04:45:57;11.80;99.90
49579;DHT22;35483;50.828;3.228;2023-03-14T04:48:25;11.80;99.90
49579;DHT22;35483;50.828;3.228;2023-03-14T04:50:51;11.80;99.90
49579;DHT22;35483;50.828;3.228;2023-03-14T04:53:18;11.80;99.90
49579;DHT22;35483;50.828;3.228;2023-03-14T04:55:50;11.80;99.90
49579;DHT22;35483;50.828;3.228;2023-03-14T04:58:16;11.80;99.90
49579;DHT22;35483;50.828;3.228;2023-03-14T05:00:42;11.80;99.90
49579;DHT22;35483;50.828;3.228;2023-03-14T05:03:09;11.80;99.90
49579;DHT22;35483;50.828;3.228;2023-03-14T05:05:36;11.80;99.90
49579;DHT22;35483;50.828;3.228;2023-03-14T05:08:01;11.70;99.90
49579;DHT22;35483;50.828;3.228;2023-03-14T05:10:28;11.70;99.90
49579;DHT22;35483;50.828;3.228;2023-03-14T05:12:56;11.70;99.90
49579;DHT22;35483;50.828;3.228;2023-03-14T05:15:22;11.70;99.90
49579;DHT22;35483;50.828;3.228;2023-03-14T05:17:50;11.70;99.90
49579;DHT22;35483;50.828;3.228;2023-03-14T05:20:16;11.70;99.90
49579;DHT22;35483;50.828;3.228;2023-03-14T05:22:42;11.70;99.90
49579;DHT22;35483;50.828;3.228;2023-03-14T05:25:11;11.70;99.90
49579;DHT22;35483;50.828;3.228;2023-03-14T05:27:37;11.80;99.90
49579;DHT22;35483;50.828;3.228;2023-03-14T05:30:06;11.50;99.90
49579;DHT22;35483;50.828;3.228;2023-03-14T05:32:35;11.00;99.90
49579;DHT22;35483;50.828;3.228;2023-03-14T05:35:02;10.80;99.90
49579;DHT22;35483;50.828;3.228;2023-03-14T05:37:28;10.50;99.90
49579;DHT22;35483;50.828;3.228;2023-03-14T05:39:56;10.20;99.90
49579;DHT22;35483;50.828;3.228;2023-03-14T05:42:22;10.20;99.90
49579;DHT22;35483;50.828;3.228;2023-03-14T05:44:49;10.10;99.90
49579;DHT22;35483;50.828;3.228;2023-03-14T05:47:15;9.90;99.90
49579;DHT22;35483;50.828;3.228;2023-03-14T05:49:42;9.80;99.90
49579;DHT22;35483;50.828;3.228;2023-03-14T05:52:10;9.80;99.90
49579;DHT22;35483;50.828;3.228;2023-03-14T05:54:35;9.80;99.90
49579;DHT22;35483;50.828;3.228;2023-03-14T05:57:04;9.70;99.90
49579;DHT22;35483;50.828;3.228;2023-03-14T05:59:31;9.70;99.90
49579;DHT22;35483;50.828;3.228;2023-03-14T06:01:57;9.70;99.90
49579;DHT22;35483;50.828;3.228;2023-03-14T06:04:24;9.60;99.90
49579;DHT22;35483;50.828;3.228;2023-03-14T06:06:57;9.60;99.90
49579;DHT22;35483;50.828;3.228;2023-03-14T06:09:23;9.50;99.90
49579;DHT22;35483;50.828;3.228;2023-03-14T06:11:54;9.50;99.90
49579;DHT22;35483;50.828;3.228;2023-03-14T06:14:20;9.50;99.90
49579;DHT22;35483;50.828;3.228;2023-03-14T06:16:49;9.50;99.90
49579;DHT22;35483;50.828;3.228;2023-03-14T06:19:18;9.50;99.90
49579;DHT22;35483;50.828;3.228;2023-03-14T06:21:46;9.50;99.90
49579;DHT22;35483;50.828;3.228;2023-03-14T06:24:12;9.50;99.90
49579;DHT22;35483;50.828;3.228;2023-03-14T06:26:38;9.40;99.90
49579;DHT22;35483;50.828;3.228;2023-03-14T06:29:05;9.40;99.90
49579;DHT22;35483;50.828;3.228;2023-03-14T06:31:31;9.40;99.90
49579;DHT22;35483;50.828;3.228;2023-03-14T06:33:57;9.30;99.90
49579;DHT22;35483;50.828;3.228;2023-03-14T06:36:25;9.30;99.90
49579;DHT22;35483;50.828;3.228;2023-03-14T06:38:51;9.30;99.90
49579;DHT22;35483;50.828;3.228;2023-03-14T06:41:18;9.30;99.90
49579;DHT22;35483;50.828;3.228;2023-03-14T06:43:44;9.30;99.90
49579;DHT22;35483;50.828;3.228;2023-03-14T06:46:10;9.30;99.90
49579;DHT22;35483;50.828;3.228;2023-03-14T06:48:36;9.20;99.90
49579;DHT22;35483;50.828;3.228;2023-03-14T06:51:02;9.10;99.90
49579;DHT22;35483;50.828;3.228;2023-03-14T06:53:27;9.10;99.90
49579;DHT22;35483;50.828;3.228;2023-03-14T06:55:53;9.00;99.90
49579;DHT22;35483;50.828;3.228;2023-03-14T06:58:19;8.90;99.90
49579;DHT22;35483;50.828;3.228;2023-03-14T07:00:44;8.90;99.90
49579;DHT22;35483;50.828;3.228;2023-03-14T07:03:16;8.90;99.90
49579;DHT22;35483;50.828;3.228;2023-03-14T07:05:42;8.90;99.90
49579;DHT22;35483;50.828;3.228;2023-03-14T07:08:08;8.90;99.90
49579;DHT22;35483;50.828;3.228;2023-03-14T07:10:34;8.90;99.90
49579;DHT22;35483;50.828;3.228;2023-03-14T07:13:00;8.90;99.90
49579;DHT22;35483;50.828;3.228;2023-03-14T07:15:29;8.90;99.90
49579;DHT22;35483;50.828;3.228;2023-03-14T07:17:58;8.90;99.90
49579;DHT22;35483;50.828;3.228;2023-03-14T07:20:24;9.00;99.90
49579;DHT22;35483;50.828;3.228;2023-03-14T07:22:50;9.10;99.90
49579;DHT22;35483;50.828;3.228;2023-03-14T07:25:16;9.10;99.90
49579;DHT22;35483;50.828;3.228;2023-03-14T07:27:45;9.10;99.90
49579;DHT22;35483;50.828;3.228;2023-03-14T07:30:12;9.00;99.90
49579;DHT22;35483;50.828;3.228;2023-03-14T07:32:38;9.00;99.90
49579;DHT22;35483;50.828;3.228;2023-03-14T07:35:04;9.00;99.90
49579;DHT22;35483;50.828;3.228;2023-03-14T07:37:30;9.00;99.90
49579;DHT22;35483;50.828;3.228;2023-03-14T07:39:57;9.00;99.90
49579;DHT22;35483;50.828;3.228;2023-03-14T07:42:22;9.00;99.90
49579;DHT22;35483;50.828;3.228;2023-03-14T07:44:48;8.90;99.90
49579;DHT22;35483;50.828;3.228;2023-03-14T07:47:15;8.90;99.90
49579;DHT22;35483;50.828;3.228;2023-03-14T07:49:42;8.90;99.90
49579;DHT22;35483;50.828;3.228;2023-03-14T07:52:07;8.90;99.90
49579;DHT22;35483;50.828;3.228;2023-03-14T07:54:33;8.90;99.90
49579;DHT22;35483;50.828;3.228;2023-03-14T07:56:59;8.90;99.90
49579;DHT22;35483;50.828;3.228;2023-03-14T07:59:27;8.80;99.90
49579;DHT22;35483;50.828;3.228;2023-03-14T08:01:53;8.90;99.90
49579;DHT22;35483;50.828;3.228;2023-03-14T08:04:20;8.90;99.70
49579;DHT22;35483;50.828;3.228;2023-03-14T08:06:49;8.90;99.80
49579;DHT22;35483;50.828;3.228;2023-03-14T08:09:15;8.90;99.50
49579;DHT22;35483;50.828;3.228;2023-03-14T08:11:40;8.80;99.40
49579;DHT22;35483;50.828;3.228;2023-03-14T08:14:06;8.80;99.70
49579;DHT22;35483;50.828;3.228;2023-03-14T08:16:33;8.80;99.50
49579;DHT22;35483;50.828;3.228;2023-03-14T08:18:59;8.80;99.30
49579;DHT22;35483;50.828;3.228;2023-03-14T08:21:25;8.90;99.20
49579;DHT22;35483;50.828;3.228;2023-03-14T08:23:51;8.90;98.90
49579;DHT22;35483;50.828;3.228;2023-03-14T08:26:20;8.90;99.20
49579;DHT22;35483;50.828;3.228;2023-03-14T08:28:46;9.00;98.90
49579;DHT22;35483;50.828;3.228;2023-03-14T08:31:13;8.90;99.10
49579;DHT22;35483;50.828;3.228;2023-03-14T08:33:39;8.90;98.90
49579;DHT22;35483;50.828;3.228;2023-03-14T08:36:05;8.90;99.00
49579;DHT22;35483;50.828;3.228;2023-03-14T08:38:31;9.00;98.80
49579;DHT22;35483;50.828;3.228;2023-03-14T08:40:58;9.10;98.70
49579;DHT22;35483;50.828;3.228;2023-03-14T08:43:24;9.20;98.30
49579;DHT22;35483;50.828;3.228;2023-03-14T08:45:51;9.30;98.50
49579;DHT22;35483;50.828;3.228;2023-03-14T08:48:17;9.30;98.50
49579;DHT22;35483;50.828;3.228;2023-03-14T08:50:47;9.50;98.20
49579;DHT22;35483;50.828;3.228;2023-03-14T08:53:13;9.50;98.20
49579;DHT22;35483;50.828;3.228;2023-03-14T08:55:39;9.60;98.10
49579;DHT22;35483;50.828;3.228;2023-03-14T08:58:08;9.70;97.90
49579;DHT22;35483;50.828;3.228;2023-03-14T09:00:34;9.60;97.70
49579;DHT22;35483;50.828;3.228;2023-03-14T09:02:59;9.60;97.80
49579;DHT22;35483;50.828;3.228;2023-03-14T09:05:26;9.70;97.40
49579;DHT22;35483;50.828;3.228;2023-03-14T09:07:53;9.70;97.30
49579;DHT22;35483;50.828;3.228;2023-03-14T09:10:21;9.60;97.40
49579;DHT22;35483;50.828;3.228;2023-03-14T09:12:47;9.60;97.30
49579;DHT22;35483;50.828;3.228;2023-03-14T09:15:16;9.60;97.50
49579;DHT22;35483;50.828;3.228;2023-03-14T09:17:43;9.60;97.30
49579;DHT22;35483;50.828;3.228;2023-03-14T09:20:11;9.60;97.50
49579;DHT22;35483;50.828;3.228;2023-03-14T09:22:37;9.70;97.20
49579;DHT22;35483;50.828;3.228;2023-03-14T09:25:04;9.80;97.40
49579;DHT22;35483;50.828;3.228;2023-03-14T09:27:33;9.90;97.30
49579;DHT22;35483;50.828;3.228;2023-03-14T09:29:59;10.10;97.10
49579;DHT22;35483;50.828;3.228;2023-03-14T09:32:25;10.20;96.90
49579;DHT22;35483;50.828;3.228;2023-03-14T09:34:53;10.30;97.20
49579;DHT22;35483;50.828;3.228;2023-03-14T09:37:19;10.40;96.60
49579;DHT22;35483;50.828;3.228;2023-03-14T09:39:47;10.30;96.60
49579;DHT22;35483;50.828;3.228;2023-03-14T09:42:23;10.30;96.00
49579;DHT22;35483;50.828;3.228;2023-03-14T09:45:04;10.20;96.50
49579;DHT22;35483;50.828;3.228;2023-03-14T09:47:35;10.10;95.10
49579;DHT22;35483;50.828;3.228;2023-03-14T09:50:04;10.10;96.10
49579;DHT22;35483;50.828;3.228;2023-03-14T09:52:35;10.10;96.20
49579;DHT22;35483;50.828;3.228;2023-03-14T09:55:27;10.00;95.90
49579;DHT22;35483;50.828;3.228;2023-03-14T09:58:00;10.00;96.00
49579;DHT22;35483;50.828;3.228;2023-03-14T10:00:29;10.00;96.20
49579;DHT22;35483;50.828;3.228;2023-03-14T10:03:22;10.00;95.90
49579;DHT22;35483;50.828;3.228;2023-03-14T10:05:47;10.00;95.90
49579;DHT22;35483;50.828;3.228;2023-03-14T10:08:14;10.00;96.30
49579;DHT22;35483;50.828;3.228;2023-03-14T10:10:46;10.00;96.30
49579;DHT22;35483;50.828;3.228;2023-03-14T10:15:51;10.00;96.40
49579;DHT22;35483;50.828;3.228;2023-03-14T10:18:17;10.10;96.50
49579;DHT22;35483;50.828;3.228;2023-03-14T10:21:03;10.10;95.80
49579;DHT22;35483;50.828;3.228;2023-03-14T10:23:32;10.00;95.80
49579;DHT22;35483;50.828;3.228;2023-03-14T10:26:15;9.90;96.90
49579;DHT22;35483;50.828;3.228;2023-03-14T10:28:51;10.00;96.50
49579;DHT22;35483;50.828;3.228;2023-03-14T10:31:18;9.90;96.70
49579;DHT22;35483;50.828;3.228;2023-03-14T10:33:58;9.90;96.70
49579;DHT22;35483;50.828;3.228;2023-03-14T10:36:28;9.90;96.70
49579;DHT22;35483;50.828;3.228;2023-03-14T10:39:32;9.90;96.70
49579;DHT22;35483;50.828;3.228;2023-03-14T10:42:33;9.90;96.80
49579;DHT22;35483;50.828;3.228;2023-03-14T10:45:04;9.90;96.90
49579;DHT22;35483;50.828;3.228;2023-03-14T10:47:34;9.90;97.00
49579;DHT22;35483;50.828;3.228;2023-03-14T10:55:20;10.10;97.00
49579;DHT22;35483;50.828;3.228;2023-03-14T10:57:46;10.00;96.90
49579;DHT22;35483;50.828;3.228;2023-03-14T11:00:16;9.80;97.20
49579;DHT22;35483;50.828;3.228;2023-03-14T11:03:03;9.70;97.50
49579;DHT22;35483;50.828;3.228;2023-03-14T11:05:35;9.70;97.60
49579;DHT22;35483;50.828;3.228;2023-03-14T11:10:46;9.50;97.40
49579;DHT22;35483;50.828;3.228;2023-03-14T11:32:03;9.20;97.50
49579;DHT22;35483;50.828;3.228;2023-03-14T11:34:41;9.00;97.50
49579;DHT22;35483;50.828;3.228;2023-03-14T11:40:00;8.50;98.10
49579;DHT22;35483;50.828;3.228;2023-03-14T11:42:33;8.40;98.10
49579;DHT22;35483;50.828;3.228;2023-03-14T11:45:02;8.20;98.30
49579;DHT22;35483;50.828;3.228;2023-03-14T11:47:36;8.10;98.40
49579;DHT22;35483;50.828;3.228;2023-03-14T11:50:21;8.00;98.50
49579;DHT22;35483;50.828;3.228;2023-03-14T11:52:56;7.90;98.80
49579;DHT22;35483;50.828;3.228;2023-03-14T11:55:39;7.80;98.90
49579;DHT22;35483;50.828;3.228;2023-03-14T11:58:26;7.80;99.40
49579;DHT22;35483;50.828;3.228;2023-03-14T12:00:54;7.90;99.60
49579;DHT22;35483;50.828;3.228;2023-03-14T12:03:26;8.00;99.30
49579;DHT22;35483;50.828;3.228;2023-03-14T12:08:43;8.30;99.90
49579;DHT22;35483;50.828;3.228;2023-03-14T12:11:35;8.40;99.60
49579;DHT22;35483;50.828;3.228;2023-03-14T12:14:02;8.50;99.70
49579;DHT22;35483;50.828;3.228;2023-03-14T12:16:33;8.60;99.70
49579;DHT22;35483;50.828;3.228;2023-03-14T12:19:14;8.70;99.30
49579;DHT22;35483;50.828;3.228;2023-03-14T12:21:49;8.70;99.30
49579;DHT22;35483;50.828;3.228;2023-03-14T12:24:23;8.70;99.40
49579;DHT22;35483;50.828;3.228;2023-03-14T12:26:56;8.70;99.70
49579;DHT22;35483;50.828;3.228;2023-03-14T12:29:24;8.70;99.40
49579;DHT22;35483;50.828;3.228;2023-03-14T12:32:28;8.70;99.40
49579;DHT22;35483;50.828;3.228;2023-03-14T12:35:32;8.70;99.30
49579;DHT22;35483;50.828;3.228;2023-03-14T12:37:54;8.80;99.20
49579;DHT22;35483;50.828;3.228;2023-03-14T12:40:30;8.70;99.30
49579;DHT22;35483;50.828;3.228;2023-03-14T12:42:58;8.60;99.50
49579;DHT22;35483;50.828;3.228;2023-03-14T12:45:34;8.30;99.90
49579;DHT22;35483;50.828;3.228;2023-03-14T12:48:15;8.00;99.90
49579;DHT22;35483;50.828;3.228;2023-03-14T12:50:44;7.80;99.90
49579;DHT22;35483;50.828;3.228;2023-03-14T12:56:28;7.60;99.90
49579;DHT22;35483;50.828;3.228;2023-03-14T13:01:48;7.70;99.90
49579;DHT22;35483;50.828;3.228;2023-03-14T13:04:32;7.60;99.90
49579;DHT22;35483;50.828;3.228;2023-03-14T13:07:01;7.60;99.90
49579;DHT22;35483;50.828;3.228;2023-03-14T13:12:13;7.10;99.90
49579;DHT22;35483;50.828;3.228;2023-03-14T13:14:46;6.80;99.90
49579;DHT22;35483;50.828;3.228;2023-03-14T13:17:14;6.60;99.90
49579;DHT22;35483;50.828;3.228;2023-03-14T13:19:41;6.40;99.90
49579;DHT22;35483;50.828;3.228;2023-03-14T13:22:38;6.20;99.90
49579;DHT22;35483;50.828;3.228;2023-03-14T13:25:06;6.10;99.90
49579;DHT22;35483;50.828;3.228;2023-03-14T13:27:35;5.90;99.90
49579;DHT22;35483;50.828;3.228;2023-03-14T13:33:11;6.20;99.90
49579;DHT22;35483;50.828;3.228;2023-03-14T13:35:46;6.40;99.90
49579;DHT22;35483;50.828;3.228;2023-03-14T13:38:27;6.50;99.90
49579;DHT22;35483;50.828;3.228;2023-03-14T13:41:04;6.60;99.90
49579;DHT22;35483;50.828;3.228;2023-03-14T13:43:36;6.60;99.90
49579;DHT22;35483;50.828;3.228;2023-03-14T13:46:21;6.70;99.90
49579;DHT22;35483;50.828;3.228;2023-03-14T13:48:56;6.80;99.90
49579;DHT22;35483;50.828;3.228;2023-03-14T13:51:24;6.80;99.90
49579;DHT22;35483;50.828;3.228;2023-03-14T13:53:52;6.80;99.90
49579;DHT22;35483;50.828;3.228;2023-03-14T13:56:20;6.90;99.90
49579;DHT22;35483;50.828;3.228;2023-03-14T13:58:49;6.70;99.90
49579;DHT22;35483;50.828;3.228;2023-03-14T14:01:32;6.60;99.90
49579;DHT22;35483;50.828;3.228;2023-03-14T14:04:06;6.40;99.90
49579;DHT22;35483;50.828;3.228;2023-03-14T14:06:37;6.20;99.90
49579;DHT22;35483;50.828;3.228;2023-03-14T14:09:14;5.90;99.90
49579;DHT22;35483;50.828;3.228;2023-03-14T14:11:48;5.90;99.90
49579;DHT22;35483;50.828;3.228;2023-03-14T14:16:55;5.70;99.90
49579;DHT22;35483;50.828;3.228;2023-03-14T14:19:24;5.60;99.90
49579;DHT22;35483;50.828;3.228;2023-03-14T14:21:54;5.70;99.90
49579;DHT22;35483;50.828;3.228;2023-03-14T14:24:22;5.80;99.90
49579;DHT22;35483;50.828;3.228;2023-03-14T14:26:59;5.70;99.90
49579;DHT22;35483;50.828;3.228;2023-03-14T14:29:33;5.70;99.90
49579;DHT22;35483;50.828;3.228;2023-03-14T14:32:12;5.80;99.90
49579;DHT22;35483;50.828;3.228;2023-03-14T14:34:45;5.90;99.90
49579;DHT22;35483;50.828;3.228;2023-03-14T14:39:52;5.90;99.90
49579;DHT22;35483;50.828;3.228;2023-03-14T14:42:27;5.80;99.90
49579;DHT22;35483;50.828;3.228;2023-03-14T14:44:56;5.90;99.90
49579;DHT22;35483;50.828;3.228;2023-03-14T14:47:25;6.00;99.90
49579;DHT22;35483;50.828;3.228;2023-03-14T14:49:59;6.10;99.90
49579;DHT22;35483;50.828;3.228;2023-03-14T14:52:39;6.30;99.90
49579;DHT22;35483;50.828;3.228;2023-03-14T14:55:19;6.30;99.90
49579;DHT22;35483;50.828;3.228;2023-03-14T14:57:53;6.40;99.90
49579;DHT22;35483;50.828;3.228;2023-03-14T15:00:22;6.60;99.90
49579;DHT22;35483;50.828;3.228;2023-03-14T15:03:00;6.70;99.90
49579;DHT22;35483;50.828;3.228;2023-03-14T15:05:29;6.70;99.90
49579;DHT22;35483;50.828;3.228;2023-03-14T15:07:59;6.90;99.90
49579;DHT22;35483;50.828;3.228;2023-03-14T15:10:25;7.00;99.90
49579;DHT22;35483;50.828;3.228;2023-03-14T15:12:51;7.10;99.90
49579;DHT22;35483;50.828;3.228;2023-03-14T15:15:23;7.30;99.90
49579;DHT22;35483;50.828;3.228;2023-03-14T15:17:49;7.50;99.90
49579;DHT22;35483;50.828;3.228;2023-03-14T15:20:17;7.60;99.90
49579;DHT22;35483;50.828;3.228;2023-03-14T15:22:45;7.70;99.90
49579;DHT22;35483;50.828;3.228;2023-03-14T15:25:12;7.70;99.90
49579;DHT22;35483;50.828;3.228;2023-03-14T15:27:39;7.80;99.90
49579;DHT22;35483;50.828;3.228;2023-03-14T15:30:15;7.80;99.90
49579;DHT22;35483;50.828;3.228;2023-03-14T15:32:42;7.80;99.90
49579;DHT22;35483;50.828;3.228;2023-03-14T15:35:08;7.80;99.90
49579;DHT22;35483;50.828;3.228;2023-03-14T15:37:34;7.90;99.90
49579;DHT22;35483;50.828;3.228;2023-03-14T15:40:01;7.90;99.90
49579;DHT22;35483;50.828;3.228;2023-03-14T15:42:28;7.90;99.90
49579;DHT22;35483;50.828;3.228;2023-03-14T15:44:54;8.00;99.90
49579;DHT22;35483;50.828;3.228;2023-03-14T15:47:20;8.10;99.90
49579;DHT22;35483;50.828;3.228;2023-03-14T15:49:47;8.10;99.90
49579;DHT22;35483;50.828;3.228;2023-03-14T15:52:13;8.10;99.90
49579;DHT22;35483;50.828;3.228;2023-03-14T15:54:39;8.10;99.90
49579;DHT22;35483;50.828;3.228;2023-03-14T15:57:05;8.10;99.90
49579;DHT22;35483;50.828;3.228;2023-03-14T15:59:34;8.10;99.90
49579;DHT22;35483;50.828;3.228;2023-03-14T16:02:02;8.20;99.90
49579;DHT22;35483;50.828;3.228;2023-03-14T16:04:30;8.10;99.90
49579;DHT22;35483;50.828;3.228;2023-03-14T16:06:58;8.20;99.90
49579;DHT22;35483;50.828;3.228;2023-03-14T16:09:26;8.20;99.90
49579;DHT22;35483;50.828;3.228;2023-03-14T16:11:53;8.20;99.90
49579;DHT22;35483;50.828;3.228;2023-03-14T16:14:19;8.10;99.90
49579;DHT22;35483;50.828;3.228;2023-03-14T16:16:47;8.10;99.90
49579;DHT22;35483;50.828;3.228;2023-03-14T16:19:13;8.10;99.90
49579;DHT22;35483;50.828;3.228;2023-03-14T16:21:38;8.10;99.90
49579;DHT22;35483;50.828;3.228;2023-03-14T16:24:04;8.10;99.90
49579;DHT22;35483;50.828;3.228;2023-03-14T16:26:32;8.20;99.90
49579;DHT22;35483;50.828;3.228;2023-03-14T16:29:01;8.10;99.90
49579;DHT22;35483;50.828;3.228;2023-03-14T16:31:26;8.20;99.90
49579;DHT22;35483;50.828;3.228;2023-03-14T16:33:52;8.10;99.90
49579;DHT22;35483;50.828;3.228;2023-03-14T16:36:19;8.10;99.90
49579;DHT22;35483;50.828;3.228;2023-03-14T16:38:46;8.10;99.90
49579;DHT22;35483;50.828;3.228;2023-03-14T16:41:17;8.10;99.90
49579;DHT22;35483;50.828;3.228;2023-03-14T16:43:44;8.10;99.90
49579;DHT22;35483;50.828;3.228;2023-03-14T16:46:16;8.10;99.90
49579;DHT22;35483;50.828;3.228;2023-03-14T16:48:42;8.10;99.90
49579;DHT22;35483;50.828;3.228;2023-03-14T16:51:11;8.10;99.90
49579;DHT22;35483;50.828;3.228;2023-03-14T16:53:38;8.20;99.90